createdAt,value
2018-08-11T00:00:32.108Z,0
2018-08-11T00:01:13.056Z,0
2018-08-11T00:01:53.912Z,0
2018-08-11T00:02:34.637Z,0
2018-08-11T00:03:15.419Z,0
2018-08-11T00:03:56.182Z,0
2018-08-11T00:04:36.952Z,0
2018-08-11T00:05:17.811Z,0
2018-08-11T00:05:59.072Z,0
2018-08-11T00:06:39.906Z,0
2018-08-11T00:07:20.616Z,0
2018-08-11T00:08:01.348Z,0
2018-08-11T00:08:42.156Z,0
2018-08-11T00:09:22.952Z,0
2018-08-11T00:10:03.667Z,0
2018-08-11T00:10:44.427Z,0
2018-08-11T00:11:25.233Z,0
2018-08-11T00:12:06.043Z,0
2018-08-11T00:12:46.881Z,0
2018-08-11T00:13:27.754Z,0
2018-08-11T00:14:08.481Z,0
2018-08-11T00:14:49.297Z,0
2018-08-11T00:15:30.089Z,0
2018-08-11T00:16:10.897Z,0
2018-08-11T00:16:51.778Z,0
2018-08-11T00:17:32.514Z,0
2018-08-11T00:18:13.294Z,0
2018-08-11T00:18:54.145Z,0
2018-08-11T00:19:34.929Z,0
2018-08-11T00:20:15.698Z,0
2018-08-11T00:20:56.452Z,0
2018-08-11T00:21:37.300Z,0
2018-08-11T00:22:18.141Z,0
2018-08-11T00:22:58.920Z,0
2018-08-11T00:23:39.784Z,0
2018-08-11T00:24:20.503Z,0
2018-08-11T00:25:01.247Z,0
2018-08-11T00:25:42.027Z,0
2018-08-11T00:26:22.838Z,0
2018-08-11T00:27:03.696Z,0
2018-08-11T00:27:44.413Z,0
2018-08-11T00:28:25.224Z,0
2018-08-11T00:29:06.172Z,0
2018-08-11T00:29:46.990Z,0
2018-08-11T00:30:27.740Z,0
2018-08-11T00:31:08.557Z,0
2018-08-11T00:31:49.323Z,0
2018-08-11T00:32:30.089Z,0
2018-08-11T00:33:10.793Z,0
2018-08-11T00:33:51.524Z,0
2018-08-11T00:34:32.301Z,0
2018-08-11T00:35:13.158Z,0
2018-08-11T00:35:53.904Z,0
2018-08-11T00:36:34.732Z,0
2018-08-11T00:37:15.473Z,0
2018-08-11T00:37:56.350Z,0
2018-08-11T00:38:37.245Z,0
2018-08-11T00:39:17.969Z,0
2018-08-11T00:39:58.725Z,0
2018-08-11T00:40:39.468Z,0
2018-08-11T00:41:20.242Z,0
2018-08-11T00:42:01.118Z,0
2018-08-11T00:42:41.915Z,0
2018-08-11T00:43:22.699Z,0
2018-08-11T00:44:03.456Z,0
2018-08-11T00:44:44.235Z,0
2018-08-11T00:45:25.039Z,0
2018-08-11T00:46:05.797Z,0
2018-08-11T00:46:46.528Z,0
2018-08-11T00:47:27.289Z,0
2018-08-11T00:48:08.077Z,0
2018-08-11T00:48:48.888Z,0
2018-08-11T00:49:29.836Z,0
2018-08-11T00:50:10.479Z,0
2018-08-11T00:50:51.227Z,0
2018-08-11T00:51:31.955Z,0
2018-08-11T00:52:12.752Z,0
2018-08-11T00:52:53.604Z,0
2018-08-11T00:53:34.294Z,0
2018-08-11T00:54:15.081Z,0
2018-08-11T00:54:55.938Z,0
2018-08-11T00:55:36.763Z,0
2018-08-11T00:56:17.487Z,0
2018-08-11T00:56:58.221Z,0
2018-08-11T00:57:38.952Z,0
2018-08-11T00:58:19.682Z,0
2018-08-11T00:59:00.532Z,0
2018-08-11T00:59:41.323Z,0
2018-08-11T01:00:22.212Z,0
2018-08-11T01:01:02.968Z,0
2018-08-11T01:01:43.736Z,0
2018-08-11T01:02:24.643Z,0
2018-08-11T01:03:05.303Z,0
2018-08-11T01:03:46.041Z,0
2018-08-11T01:04:26.747Z,0
2018-08-11T01:05:07.512Z,0
2018-08-11T01:05:48.345Z,0
2018-08-11T01:06:29.088Z,0
2018-08-11T01:07:09.836Z,0
2018-08-11T01:07:50.680Z,0
2018-08-11T01:08:31.520Z,0
2018-08-11T01:09:12.332Z,0
2018-08-11T01:09:53.090Z,0
2018-08-11T01:10:33.852Z,0
2018-08-11T01:11:14.726Z,0
2018-08-11T01:11:55.452Z,0
2018-08-11T01:12:36.217Z,0
2018-08-11T01:13:16.930Z,0
2018-08-11T01:13:57.708Z,0
2018-08-11T01:14:38.564Z,0
2018-08-11T01:15:19.432Z,0
2018-08-11T01:16:00.168Z,0
2018-08-11T01:16:40.932Z,0
2018-08-11T01:17:21.680Z,0
2018-08-11T01:18:02.507Z,0
2018-08-11T01:18:43.343Z,0
2018-08-11T01:19:24.136Z,0
2018-08-11T01:20:04.898Z,0
2018-08-11T01:20:45.760Z,0
2018-08-11T01:21:26.635Z,0
2018-08-11T01:22:07.493Z,0
2018-08-11T01:22:48.277Z,0
2018-08-11T01:23:29.083Z,0
2018-08-11T01:24:09.835Z,0
2018-08-11T01:24:50.640Z,0
2018-08-11T01:25:31.477Z,0
2018-08-11T01:26:12.306Z,0
2018-08-11T01:26:53.066Z,0
2018-08-11T01:27:33.791Z,0
2018-08-11T01:28:14.598Z,0
2018-08-11T01:28:55.372Z,0
2018-08-11T01:29:36.124Z,0
2018-08-11T01:30:16.884Z,0
2018-08-11T01:30:57.686Z,0
2018-08-11T01:31:38.576Z,0
2018-08-11T01:32:19.361Z,0
2018-08-11T01:33:00.190Z,0
2018-08-11T01:33:40.909Z,0
2018-08-11T01:34:21.683Z,0
2018-08-11T01:35:02.340Z,0
2018-08-11T01:35:43.144Z,0
2018-08-11T01:36:23.968Z,0
2018-08-11T01:37:04.695Z,0
2018-08-11T01:37:45.446Z,0
2018-08-11T01:38:26.314Z,0
2018-08-11T01:39:07.136Z,0
2018-08-11T01:39:48.585Z,0
2018-08-11T01:40:29.348Z,0
2018-08-11T01:41:10.191Z,0
2018-08-11T01:41:51.026Z,0
2018-08-11T01:42:31.796Z,0
2018-08-11T01:43:12.567Z,0
2018-08-11T01:43:53.322Z,0
2018-08-11T01:44:34.163Z,0
2018-08-11T01:45:14.984Z,0
2018-08-11T01:45:55.756Z,0
2018-08-11T01:46:36.568Z,0
2018-08-11T01:47:17.393Z,0
2018-08-11T01:47:58.271Z,0
2018-08-11T01:48:38.980Z,0
2018-08-11T01:49:19.693Z,0
2018-08-11T01:50:00.390Z,0
2018-08-11T01:50:41.166Z,0
2018-08-11T01:51:22.017Z,0
2018-08-11T01:52:02.833Z,0
2018-08-11T01:52:43.673Z,0
2018-08-11T01:53:24.421Z,0
2018-08-11T01:54:05.199Z,0
2018-08-11T01:54:46.096Z,0
2018-08-11T01:55:26.862Z,0
2018-08-11T01:56:07.603Z,0
2018-08-11T01:56:48.389Z,0
2018-08-11T01:57:29.201Z,0
2018-08-11T01:58:10.027Z,0
2018-08-11T01:58:50.782Z,0
2018-08-11T01:59:31.538Z,0
2018-08-11T02:00:12.414Z,0
2018-08-11T02:00:53.172Z,0
2018-08-11T02:01:33.972Z,0
2018-08-11T02:02:14.709Z,0
2018-08-11T02:02:55.502Z,0
2018-08-11T02:03:36.336Z,0
2018-08-11T02:04:17.128Z,0
2018-08-11T02:04:57.871Z,0
2018-08-11T02:05:38.622Z,0
2018-08-11T02:06:19.479Z,0
2018-08-11T02:07:00.339Z,0
2018-08-11T02:07:41.154Z,0
2018-08-11T02:08:21.904Z,0
2018-08-11T02:09:02.638Z,0
2018-08-11T02:09:43.357Z,0
2018-08-11T02:10:24.113Z,0
2018-08-11T02:11:04.982Z,0
2018-08-11T02:11:45.690Z,0
2018-08-11T02:12:26.486Z,0
2018-08-11T02:13:07.330Z,0
2018-08-11T02:13:48.090Z,0
2018-08-11T02:14:28.914Z,0
2018-08-11T02:15:09.698Z,0
2018-08-11T02:15:50.468Z,0
2018-08-11T02:16:31.283Z,0
2018-08-11T02:17:12.056Z,0
2018-08-11T02:17:52.785Z,0
2018-08-11T02:18:33.517Z,0
2018-08-11T02:19:14.338Z,0
2018-08-11T02:19:55.170Z,0
2018-08-11T02:20:35.875Z,0
2018-08-11T02:21:16.628Z,0
2018-08-11T02:21:57.454Z,0
2018-08-11T02:22:38.228Z,0
2018-08-11T02:23:19.025Z,0
2018-08-11T02:23:59.734Z,0
2018-08-11T02:24:40.506Z,0
2018-08-11T02:25:21.251Z,0
2018-08-11T02:26:02.041Z,0
2018-08-11T02:26:42.970Z,0
2018-08-11T02:27:23.826Z,0
2018-08-11T02:28:04.543Z,0
2018-08-11T02:28:45.367Z,0
2018-08-11T02:29:26.211Z,0
2018-08-11T02:30:06.990Z,0
2018-08-11T02:30:47.690Z,0
2018-08-11T02:31:28.435Z,0
2018-08-11T02:32:09.228Z,0
2018-08-11T02:32:50.076Z,0
2018-08-11T02:33:30.944Z,0
2018-08-11T02:34:11.781Z,0
2018-08-11T02:34:52.517Z,0
2018-08-11T02:35:33.263Z,0
2018-08-11T02:36:13.995Z,0
2018-08-11T02:36:54.832Z,0
2018-08-11T02:37:35.603Z,0
2018-08-11T02:38:16.387Z,0
2018-08-11T02:38:57.196Z,0
2018-08-11T02:39:37.982Z,0
2018-08-11T02:40:18.811Z,0
2018-08-11T02:40:59.573Z,0
2018-08-11T02:41:40.375Z,0
2018-08-11T02:42:21.137Z,0
2018-08-11T02:43:01.886Z,0
2018-08-11T02:43:42.788Z,0
2018-08-11T02:44:23.578Z,0
2018-08-11T02:45:04.391Z,0
2018-08-11T02:45:45.126Z,0
2018-08-11T02:46:25.908Z,0
2018-08-11T02:47:06.778Z,0
2018-08-11T02:47:47.584Z,0
2018-08-11T02:48:28.332Z,0
2018-08-11T02:49:09.095Z,0
2018-08-11T02:49:49.918Z,0
2018-08-11T02:50:30.705Z,0
2018-08-11T02:51:11.473Z,0
2018-08-11T02:51:52.273Z,0
2018-08-11T02:52:33.059Z,0
2018-08-11T02:53:13.847Z,0
2018-08-11T02:53:54.627Z,0
2018-08-11T02:54:35.424Z,0
2018-08-11T02:55:16.309Z,0
2018-08-11T02:55:57.075Z,0
2018-08-11T02:56:37.822Z,0
2018-08-11T02:57:18.550Z,0
2018-08-11T02:57:59.324Z,0
2018-08-11T02:58:40.197Z,0
2018-08-11T02:59:21.080Z,0
2018-08-11T03:00:01.970Z,0
2018-08-11T03:00:42.755Z,0
2018-08-11T03:01:23.510Z,0
2018-08-11T03:02:04.216Z,0
2018-08-11T03:02:44.987Z,0
2018-08-11T03:03:25.821Z,0
2018-08-11T03:04:06.542Z,0
2018-08-11T03:04:47.383Z,0
2018-08-11T03:05:28.296Z,0
2018-08-11T03:06:09.107Z,0
2018-08-11T03:06:49.898Z,0
2018-08-11T03:07:30.617Z,0
2018-08-11T03:08:11.388Z,0
2018-08-11T03:08:52.165Z,0
2018-08-11T03:09:33.039Z,0
2018-08-11T03:10:13.885Z,0
2018-08-11T03:10:54.676Z,0
2018-08-11T03:11:35.441Z,0
2018-08-11T03:12:16.239Z,0
2018-08-11T03:12:57.016Z,0
2018-08-11T03:13:37.791Z,0
2018-08-11T03:14:18.574Z,0
2018-08-11T03:14:59.365Z,0
2018-08-11T03:15:40.156Z,0
2018-08-11T03:16:21.007Z,0
2018-08-11T03:17:01.818Z,0
2018-08-11T03:17:42.582Z,0
2018-08-11T03:18:23.310Z,0
2018-08-11T03:19:04.032Z,0
2018-08-11T03:19:44.855Z,0
2018-08-11T03:20:25.685Z,0
2018-08-11T03:21:06.437Z,0
2018-08-11T03:21:47.172Z,0
2018-08-11T03:22:28.006Z,0
2018-08-11T03:23:08.862Z,0
2018-08-11T03:23:49.684Z,0
2018-08-11T03:24:30.443Z,0
2018-08-11T03:25:11.199Z,0
2018-08-11T03:25:52.010Z,0
2018-08-11T03:26:32.771Z,0
2018-08-11T03:27:13.537Z,0
2018-08-11T03:27:54.292Z,0
2018-08-11T03:28:35.146Z,0
2018-08-11T03:29:15.923Z,0
2018-08-11T03:29:56.626Z,0
2018-08-11T03:30:37.437Z,0
2018-08-11T03:31:18.216Z,0
2018-08-11T03:31:59.041Z,0
2018-08-11T03:32:39.843Z,0
2018-08-11T03:33:20.614Z,0
2018-08-11T03:34:01.319Z,0
2018-08-11T03:34:42.157Z,0
2018-08-11T03:35:22.956Z,0
2018-08-11T03:36:03.802Z,0
2018-08-11T03:36:44.662Z,0
2018-08-11T03:37:25.397Z,0
2018-08-11T03:38:06.145Z,0
2018-08-11T03:38:46.996Z,0
2018-08-11T03:39:27.788Z,0
2018-08-11T03:40:08.488Z,0
2018-08-11T03:40:49.229Z,0
2018-08-11T03:41:30.011Z,0
2018-08-11T03:42:10.801Z,0
2018-08-11T03:42:51.572Z,0
2018-08-11T03:43:32.376Z,0
2018-08-11T03:44:13.168Z,0
2018-08-11T03:44:53.982Z,0
2018-08-11T03:45:34.730Z,0
2018-08-11T03:46:15.616Z,0
2018-08-11T03:46:56.384Z,0
2018-08-11T03:47:37.167Z,0
2018-08-11T03:48:18.031Z,0
2018-08-11T03:48:58.826Z,0
2018-08-11T03:49:39.743Z,0
2018-08-11T03:50:20.522Z,0
2018-08-11T03:51:01.251Z,0
2018-08-11T03:51:42.037Z,0
2018-08-11T03:52:22.827Z,0
2018-08-11T03:53:03.653Z,0
2018-08-11T03:53:44.500Z,0
2018-08-11T03:54:25.336Z,0
2018-08-11T03:55:06.077Z,0
2018-08-11T03:55:46.916Z,0
2018-08-11T03:56:27.736Z,0
2018-08-11T03:57:08.505Z,0
2018-08-11T03:57:49.317Z,0
2018-08-11T03:58:30.066Z,0
2018-08-11T03:59:10.873Z,0
2018-08-11T03:59:51.689Z,0
2018-08-11T04:00:32.446Z,0
2018-08-11T04:01:13.265Z,0
2018-08-11T04:01:54.100Z,0
2018-08-11T04:02:34.949Z,0
2018-08-11T04:03:15.763Z,0
2018-08-11T04:03:56.463Z,0
2018-08-11T04:04:37.320Z,0
2018-08-11T04:05:18.099Z,0
2018-08-11T04:05:58.844Z,0
2018-08-11T04:06:39.696Z,0
2018-08-11T04:07:20.341Z,0
2018-08-11T04:08:01.182Z,0
2018-08-11T04:08:42.020Z,0
2018-08-11T04:09:22.813Z,0
2018-08-11T04:10:03.555Z,0
2018-08-11T04:10:44.324Z,0
2018-08-11T04:11:25.095Z,0
2018-08-11T04:12:05.926Z,0
2018-08-11T04:12:46.756Z,0
2018-08-11T04:13:27.490Z,0
2018-08-11T04:14:08.312Z,0
2018-08-11T04:14:49.115Z,0
2018-08-11T04:15:29.966Z,0
2018-08-11T04:16:10.715Z,0
2018-08-11T04:16:51.489Z,0
2018-08-11T04:17:32.250Z,0
2018-08-11T04:18:13.100Z,0
2018-08-11T04:18:53.821Z,0
2018-08-11T04:19:34.603Z,0
2018-08-11T04:20:15.306Z,0
2018-08-11T04:20:56.140Z,0
2018-08-11T04:21:36.983Z,0
2018-08-11T04:22:17.714Z,0
2018-08-11T04:22:58.479Z,0
2018-08-11T04:23:39.350Z,0
2018-08-11T04:24:20.190Z,0
2018-08-11T04:25:00.968Z,0
2018-08-11T04:25:41.692Z,0
2018-08-11T04:26:22.428Z,0
2018-08-11T04:27:03.183Z,0
2018-08-11T04:27:44.020Z,0
2018-08-11T04:28:24.807Z,0
2018-08-11T04:29:05.630Z,0
2018-08-11T04:29:46.370Z,0
2018-08-11T04:30:27.091Z,0
2018-08-11T04:31:07.971Z,0
2018-08-11T04:31:48.766Z,0
2018-08-11T04:32:29.539Z,0
2018-08-11T04:33:10.306Z,0
2018-08-11T04:33:51.076Z,0
2018-08-11T04:34:31.882Z,0
2018-08-11T04:35:12.660Z,0
2018-08-11T04:35:53.427Z,0
2018-08-11T04:36:34.287Z,0
2018-08-11T04:37:15.109Z,0
2018-08-11T04:37:55.922Z,0
2018-08-11T04:38:36.604Z,0
2018-08-11T04:39:17.377Z,0
2018-08-11T04:39:58.223Z,0
2018-08-11T04:40:38.975Z,0
2018-08-11T04:41:19.704Z,0
2018-08-11T04:42:00.457Z,0
2018-08-11T04:42:41.227Z,0
2018-08-11T04:43:22.011Z,0
2018-08-11T04:44:02.908Z,0
2018-08-11T04:44:43.678Z,0
2018-08-11T04:45:24.378Z,0
2018-08-11T04:46:05.129Z,0
2018-08-11T04:46:45.864Z,0
2018-08-11T04:47:26.687Z,0
2018-08-11T04:48:07.431Z,0
2018-08-11T04:48:48.220Z,0
2018-08-11T04:49:29.089Z,0
2018-08-11T04:50:09.886Z,0
2018-08-11T04:50:50.716Z,0
2018-08-11T04:51:31.505Z,0
2018-08-11T04:52:12.210Z,0
2018-08-11T04:52:52.951Z,0
2018-08-11T04:53:33.790Z,0
2018-08-11T04:54:14.580Z,0
2018-08-11T04:54:55.397Z,0
2018-08-11T04:55:36.213Z,0
2018-08-11T04:56:16.984Z,0
2018-08-11T04:56:57.825Z,0
2018-08-11T04:57:38.628Z,0
2018-08-11T04:58:19.349Z,0
2018-08-11T04:59:00.088Z,0
2018-08-11T04:59:40.807Z,0
2018-08-11T05:00:21.652Z,0
2018-08-11T05:01:02.424Z,0
2018-08-11T05:01:43.277Z,0
2018-08-11T05:02:24.047Z,0
2018-08-11T05:03:04.793Z,0
2018-08-11T05:03:45.557Z,0
2018-08-11T05:04:26.329Z,0
2018-08-11T05:05:07.147Z,0
2018-08-11T05:05:47.885Z,0
2018-08-11T05:06:28.663Z,4
2018-08-11T05:07:09.443Z,4
2018-08-11T05:07:50.297Z,4
2018-08-11T05:08:31.060Z,4
2018-08-11T05:09:11.790Z,0
2018-08-11T05:09:52.582Z,0
2018-08-11T05:10:33.367Z,0
2018-08-11T05:11:14.101Z,0
2018-08-11T05:11:54.846Z,4
2018-08-11T05:12:35.552Z,4
2018-08-11T05:13:16.402Z,4
2018-08-11T05:13:57.186Z,4
2018-08-11T05:14:37.934Z,4
2018-08-11T05:15:18.740Z,4
2018-08-11T05:15:59.547Z,0
2018-08-11T05:16:40.365Z,0
2018-08-11T05:17:21.102Z,4
2018-08-11T05:18:01.816Z,4
2018-08-11T05:18:42.548Z,4
2018-08-11T05:19:23.333Z,4
2018-08-11T05:20:04.148Z,4
2018-08-11T05:20:44.995Z,4
2018-08-11T05:21:25.831Z,4
2018-08-11T05:22:06.555Z,4
2018-08-11T05:22:47.309Z,4
2018-08-11T05:23:28.171Z,4
2018-08-11T05:24:08.926Z,4
2018-08-11T05:24:49.671Z,4
2018-08-11T05:25:30.389Z,4
2018-08-11T05:26:11.186Z,4
2018-08-11T05:26:52.028Z,4
2018-08-11T05:27:32.842Z,4
2018-08-11T05:28:13.676Z,4
2018-08-11T05:28:54.369Z,8
2018-08-11T05:29:35.076Z,8
2018-08-11T05:30:15.831Z,8
2018-08-11T05:30:56.629Z,8
2018-08-11T05:31:37.454Z,8
2018-08-11T05:32:18.194Z,8
2018-08-11T05:32:59.003Z,8
2018-08-11T05:33:39.863Z,8
2018-08-11T05:34:20.711Z,12
2018-08-11T05:35:01.444Z,12
2018-08-11T05:35:42.177Z,8
2018-08-11T05:36:22.887Z,12
2018-08-11T05:37:03.679Z,12
2018-08-11T05:37:44.516Z,12
2018-08-11T05:38:25.319Z,12
2018-08-11T05:39:06.144Z,12
2018-08-11T05:39:46.880Z,12
2018-08-11T05:40:27.662Z,16
2018-08-11T05:41:08.519Z,12
2018-08-11T05:41:49.244Z,16
2018-08-11T05:42:29.992Z,16
2018-08-11T05:43:10.697Z,16
2018-08-11T05:43:51.519Z,16
2018-08-11T05:44:32.377Z,20
2018-08-11T05:45:13.137Z,20
2018-08-11T05:45:53.899Z,20
2018-08-11T05:46:34.737Z,20
2018-08-11T05:47:15.562Z,16
2018-08-11T05:47:56.354Z,20
2018-08-11T05:48:37.093Z,20
2018-08-11T05:49:17.916Z,20
2018-08-11T05:49:58.702Z,24
2018-08-11T05:50:39.443Z,24
2018-08-11T05:51:20.165Z,24
2018-08-11T05:52:00.930Z,24
2018-08-11T05:52:41.736Z,24
2018-08-11T05:53:22.581Z,28
2018-08-11T05:54:03.408Z,28
2018-08-11T05:54:44.133Z,28
2018-08-11T05:55:24.869Z,28
2018-08-11T05:56:05.646Z,32
2018-08-11T05:56:46.453Z,32
2018-08-11T05:57:27.286Z,32
2018-08-11T05:58:07.988Z,32
2018-08-11T05:58:48.784Z,36
2018-08-11T05:59:29.641Z,32
2018-08-11T06:00:10.447Z,36
2018-08-11T06:00:51.271Z,36
2018-08-11T06:01:32.061Z,40
2018-08-11T06:02:12.832Z,44
2018-08-11T06:02:53.596Z,56
2018-08-11T06:03:34.395Z,60
2018-08-11T06:04:15.228Z,68
2018-08-11T06:04:56.089Z,72
2018-08-11T06:05:36.825Z,80
2018-08-11T06:06:17.579Z,88
2018-08-11T06:06:58.406Z,88
2018-08-11T06:07:39.197Z,96
2018-08-11T06:08:19.965Z,104
2018-08-11T06:09:00.737Z,112
2018-08-11T06:09:41.555Z,116
2018-08-11T06:10:22.451Z,120
2018-08-11T06:11:03.239Z,120
2018-08-11T06:11:44.070Z,116
2018-08-11T06:12:24.824Z,112
2018-08-11T06:13:05.568Z,116
2018-08-11T06:13:46.320Z,124
2018-08-11T06:14:27.099Z,128
2018-08-11T06:15:07.878Z,132
2018-08-11T06:15:48.613Z,136
2018-08-11T06:16:29.402Z,140
2018-08-11T06:17:10.238Z,144
2018-08-11T06:17:51.063Z,152
2018-08-11T06:18:31.823Z,152
2018-08-11T06:19:12.588Z,156
2018-08-11T06:19:53.399Z,164
2018-08-11T06:20:34.155Z,172
2018-08-11T06:21:15.044Z,180
2018-08-11T06:21:55.694Z,196
2018-08-11T06:22:36.448Z,216
2018-08-11T06:23:17.294Z,316
2018-08-11T06:23:58.122Z,340
2018-08-11T06:24:38.890Z,380
2018-08-11T06:25:19.652Z,448
2018-08-11T06:26:00.493Z,516
2018-08-11T06:26:41.344Z,596
2018-08-11T06:27:22.024Z,656
2018-08-11T06:28:02.769Z,704
2018-08-11T06:28:43.517Z,748
2018-08-11T06:29:24.308Z,744
2018-08-11T06:30:05.230Z,624
2018-08-11T06:30:46.060Z,512
2018-08-11T06:31:26.917Z,724
2018-08-11T06:32:07.631Z,912
2018-08-11T06:32:48.357Z,928
2018-08-11T06:33:29.134Z,964
2018-08-11T06:34:09.869Z,1024
2018-08-11T06:34:50.614Z,1028
2018-08-11T06:35:31.390Z,1008
2018-08-11T06:36:12.254Z,924
2018-08-11T06:36:53.078Z,856
2018-08-11T06:37:33.773Z,656
2018-08-11T06:38:14.593Z,640
2018-08-11T06:38:55.402Z,692
2018-08-11T06:39:36.256Z,764
2018-08-11T06:40:17.017Z,704
2018-08-11T06:40:57.936Z,440
2018-08-11T06:41:38.577Z,344
2018-08-11T06:42:19.367Z,296
2018-08-11T06:43:00.137Z,252
2018-08-11T06:43:40.862Z,208
2018-08-11T06:44:21.622Z,164
2018-08-11T06:45:02.459Z,136
2018-08-11T06:45:43.246Z,116
2018-08-11T06:46:24.018Z,104
2018-08-11T06:47:04.839Z,96
2018-08-11T06:47:45.524Z,88
2018-08-11T06:48:26.271Z,84
2018-08-11T06:49:07.074Z,80
2018-08-11T06:49:47.878Z,76
2018-08-11T06:50:28.658Z,72
2018-08-11T06:51:09.461Z,72
2018-08-11T06:51:50.279Z,68
2018-08-11T06:52:31.133Z,68
2018-08-11T06:53:11.901Z,68
2018-08-11T06:53:52.654Z,68
2018-08-11T06:54:33.485Z,72
2018-08-11T06:55:14.264Z,76
2018-08-11T06:55:55.015Z,80
2018-08-11T06:56:35.725Z,80
2018-08-11T06:57:16.476Z,76
2018-08-11T06:57:57.352Z,76
2018-08-11T06:58:38.074Z,80
2018-08-11T06:59:18.815Z,80
2018-08-11T06:59:59.626Z,84
2018-08-11T07:00:40.466Z,84
2018-08-11T07:01:21.379Z,84
2018-08-11T07:02:02.114Z,80
2018-08-11T07:02:42.868Z,80
2018-08-11T07:03:23.688Z,84
2018-08-11T07:04:04.527Z,84
2018-08-11T07:04:45.318Z,84
2018-08-11T07:05:26.193Z,88
2018-08-11T07:06:07.008Z,88
2018-08-11T07:06:47.899Z,92
2018-08-11T07:07:28.670Z,96
2018-08-11T07:08:09.468Z,96
2018-08-11T07:08:50.243Z,100
2018-08-11T07:09:30.972Z,104
2018-08-11T07:10:11.777Z,100
2018-08-11T07:10:52.628Z,100
2018-08-11T07:11:33.446Z,92
2018-08-11T07:12:14.249Z,88
2018-08-11T07:12:54.973Z,88
2018-08-11T07:13:35.709Z,88
2018-08-11T07:14:16.433Z,92
2018-08-11T07:14:57.222Z,92
2018-08-11T07:15:38.086Z,100
2018-08-11T07:16:18.809Z,104
2018-08-11T07:16:59.529Z,112
2018-08-11T07:17:40.329Z,120
2018-08-11T07:18:21.108Z,128
2018-08-11T07:19:01.945Z,132
2018-08-11T07:19:42.668Z,132
2018-08-11T07:20:23.424Z,132
2018-08-11T07:21:04.235Z,132
2018-08-11T07:21:45.064Z,132
2018-08-11T07:22:25.867Z,136
2018-08-11T07:23:06.687Z,132
2018-08-11T07:23:47.434Z,136
2018-08-11T07:24:28.254Z,148
2018-08-11T07:25:09.155Z,168
2018-08-11T07:25:49.896Z,196
2018-08-11T07:26:31.415Z,208
2018-08-11T07:27:12.111Z,228
2018-08-11T07:27:53.103Z,244
2018-08-11T07:28:34.020Z,280
2018-08-11T07:29:14.779Z,324
2018-08-11T07:29:55.632Z,376
2018-08-11T07:30:36.577Z,428
2018-08-11T07:31:17.388Z,472
2018-08-11T07:31:58.307Z,504
2018-08-11T07:32:39.045Z,540
2018-08-11T07:33:19.884Z,540
2018-08-11T07:34:00.749Z,536
2018-08-11T07:34:41.553Z,556
2018-08-11T07:35:22.353Z,616
2018-08-11T07:36:03.120Z,780
2018-08-11T07:36:43.953Z,700
2018-08-11T07:37:24.773Z,744
2018-08-11T07:38:05.685Z,712
2018-08-11T07:38:46.496Z,624
2018-08-11T07:39:27.454Z,564
2018-08-11T07:40:08.173Z,532
2018-08-11T07:40:48.980Z,540
2018-08-11T07:41:30.002Z,604
2018-08-11T07:42:10.833Z,720
2018-08-11T07:42:51.611Z,732
2018-08-11T07:43:32.450Z,816
2018-08-11T07:44:13.303Z,860
2018-08-11T07:44:54.118Z,860
2018-08-11T07:45:35.030Z,856
2018-08-11T07:46:15.761Z,812
2018-08-11T07:46:56.736Z,760
2018-08-11T07:47:37.730Z,744
2018-08-11T07:48:18.507Z,672
2018-08-11T07:48:59.341Z,680
2018-08-11T07:49:40.317Z,792
2018-08-11T07:50:21.161Z,876
2018-08-11T07:51:01.949Z,1216
2018-08-11T07:51:42.822Z,1672
2018-08-11T07:52:23.570Z,1640
2018-08-11T07:53:04.311Z,1620
2018-08-11T07:53:45.059Z,1584
2018-08-11T07:54:26.340Z,1344
2018-08-11T07:55:07.506Z,700
2018-08-11T07:55:48.425Z,628
2018-08-11T07:56:29.632Z,712
2018-08-11T07:57:10.370Z,952
2018-08-11T07:57:51.259Z,1188
2018-08-11T07:58:32.004Z,1828
2018-08-11T07:59:12.917Z,1768
2018-08-11T07:59:53.630Z,1912
2018-08-11T08:00:34.463Z,2072
2018-08-11T08:01:15.660Z,2228
2018-08-11T08:01:56.558Z,1676
2018-08-11T08:02:37.365Z,1316
2018-08-11T08:03:18.269Z,1792
2018-08-11T08:03:59.507Z,3064
2018-08-11T08:04:40.475Z,2660
2018-08-11T08:05:21.433Z,3456
2018-08-11T08:06:02.386Z,1560
2018-08-11T08:06:43.229Z,2596
2018-08-11T08:07:24.164Z,2368
2018-08-11T08:08:05.099Z,1108
2018-08-11T08:08:45.888Z,828
2018-08-11T08:09:27.082Z,796
2018-08-11T08:10:07.894Z,756
2018-08-11T08:10:49.066Z,632
2018-08-11T08:11:30.122Z,580
2018-08-11T08:12:10.894Z,588
2018-08-11T08:12:51.650Z,580
2018-08-11T08:13:32.445Z,604
2018-08-11T08:14:13.290Z,744
2018-08-11T08:14:54.410Z,2404
2018-08-11T08:15:35.302Z,5932
2018-08-11T08:16:16.056Z,11208
2018-08-11T08:16:56.864Z,15336
2018-08-11T08:17:37.779Z,19360
2018-08-11T08:18:18.550Z,18976
2018-08-11T08:18:59.300Z,18304
2018-08-11T08:19:40.404Z,17856
2018-08-11T08:20:21.006Z,18656
2018-08-11T08:21:01.861Z,21632
2018-08-11T08:21:42.829Z,23168
2018-08-11T08:22:23.584Z,21376
2018-08-11T08:23:04.374Z,17504
2018-08-11T08:23:45.222Z,14544
2018-08-11T08:24:26.063Z,12900
2018-08-11T08:25:06.968Z,12084
2018-08-11T08:25:47.897Z,11860
2018-08-11T08:26:29.472Z,12116
2018-08-11T08:27:10.033Z,12792
2018-08-11T08:27:50.874Z,13780
2018-08-11T08:28:31.774Z,14608
2018-08-11T08:29:12.479Z,14348
2018-08-11T08:29:53.303Z,13224
2018-08-11T08:30:34.055Z,12044
2018-08-11T08:31:14.859Z,12412
2018-08-11T08:31:55.676Z,15168
2018-08-11T08:32:36.511Z,18688
2018-08-11T08:33:17.322Z,19488
2018-08-11T08:33:58.168Z,16448
2018-08-11T08:34:40.007Z,12564
2018-08-11T08:35:19.987Z,10524
2018-08-11T08:36:00.794Z,10132
2018-08-11T08:36:41.571Z,10616
2018-08-11T08:37:22.754Z,10912
2018-08-11T08:38:03.751Z,10448
2018-08-11T08:38:44.634Z,8560
2018-08-11T08:39:25.382Z,6632
2018-08-11T08:40:06.579Z,4820
2018-08-11T08:40:47.428Z,3364
2018-08-11T08:41:28.242Z,2180
2018-08-11T08:42:09.036Z,1412
2018-08-11T08:42:49.882Z,1312
2018-08-11T08:43:30.826Z,1288
2018-08-11T08:44:11.611Z,1272
2018-08-11T08:44:52.730Z,1252
2018-08-11T08:45:33.589Z,1232
2018-08-11T08:46:14.846Z,1208
2018-08-11T08:46:55.639Z,1192
2018-08-11T08:47:36.951Z,1204
2018-08-11T08:48:18.031Z,972
2018-08-11T08:48:58.980Z,820
2018-08-11T08:49:39.746Z,780
2018-08-11T08:50:20.762Z,724
2018-08-11T08:51:01.595Z,660
2018-08-11T08:51:42.411Z,628
2018-08-11T08:52:23.169Z,600
2018-08-11T08:53:03.984Z,580
2018-08-11T08:53:44.727Z,560
2018-08-11T08:54:25.521Z,544
2018-08-11T08:55:06.326Z,508
2018-08-11T08:55:47.038Z,460
2018-08-11T08:56:27.824Z,456
2018-08-11T08:57:08.671Z,476
2018-08-11T08:57:49.519Z,484
2018-08-11T08:58:30.280Z,484
2018-08-11T08:59:11.051Z,476
2018-08-11T08:59:51.790Z,472
2018-08-11T09:00:32.589Z,484
2018-08-11T09:01:13.364Z,492
2018-08-11T09:01:54.146Z,504
2018-08-11T09:02:34.897Z,516
2018-08-11T09:03:15.734Z,528
2018-08-11T09:03:56.528Z,532
2018-08-11T09:04:37.276Z,532
2018-08-11T09:05:18.054Z,524
2018-08-11T09:05:58.871Z,496
2018-08-11T09:06:39.696Z,496
2018-08-11T09:07:20.429Z,496
2018-08-11T09:08:01.179Z,504
2018-08-11T09:08:41.876Z,520
2018-08-11T09:09:22.621Z,548
2018-08-11T09:10:03.469Z,588
2018-08-11T09:10:44.273Z,632
2018-08-11T09:11:25.155Z,664
2018-08-11T09:12:06.161Z,700
2018-08-11T09:12:46.879Z,752
2018-08-11T09:13:27.732Z,772
2018-08-11T09:14:08.513Z,704
2018-08-11T09:14:49.284Z,652
2018-08-11T09:15:30.087Z,648
2018-08-11T09:16:10.978Z,680
2018-08-11T09:16:51.851Z,740
2018-08-11T09:17:32.703Z,716
2018-08-11T09:18:13.504Z,756
2018-08-11T09:18:54.270Z,776
2018-08-11T09:19:35.066Z,712
2018-08-11T09:20:15.883Z,668
2018-08-11T09:20:56.744Z,636
2018-08-11T09:21:37.496Z,632
2018-08-11T09:22:18.493Z,648
2018-08-11T09:22:59.364Z,700
2018-08-11T09:23:40.184Z,808
2018-08-11T09:24:21.074Z,872
2018-08-11T09:25:01.791Z,900
2018-08-11T09:25:42.556Z,800
2018-08-11T09:26:23.342Z,804
2018-08-11T09:27:04.164Z,748
2018-08-11T09:27:44.972Z,716
2018-08-11T09:28:25.857Z,708
2018-08-11T09:29:06.886Z,692
2018-08-11T09:29:47.494Z,684
2018-08-11T09:30:28.326Z,696
2018-08-11T09:31:09.095Z,724
2018-08-11T09:31:49.842Z,772
2018-08-11T09:32:30.616Z,792
2018-08-11T09:33:11.373Z,784
2018-08-11T09:33:52.341Z,784
2018-08-11T09:34:33.177Z,752
2018-08-11T09:35:13.913Z,724
2018-08-11T09:35:54.787Z,700
2018-08-11T09:36:35.651Z,668
2018-08-11T09:37:16.497Z,648
2018-08-11T09:37:57.321Z,640
2018-08-11T09:38:38.212Z,648
2018-08-11T09:39:19.152Z,664
2018-08-11T09:40:00.039Z,660
2018-08-11T09:40:40.890Z,664
2018-08-11T09:41:21.711Z,652
2018-08-11T09:42:02.737Z,648
2018-08-11T09:42:43.660Z,636
2018-08-11T09:43:24.565Z,632
2018-08-11T09:44:05.463Z,624
2018-08-11T09:44:46.320Z,632